< < Back
Terminal Aerodrome Forecast


Current Version              Previous Versions:   1  2  3  4  5  6  7  8  9  

Terminal Aerodrome Forecast

483
FTUS42 KCHS 202200 AAC
TAFSAV
TAF AMD
KSAV 202227Z 2022/2118 03006KT P6SM SCT009 OVC015
      TEMPO 2023/2103 6SM -RA SCT005 OVC009
     FM210300 02005KT 6SM -RA BR OVC005
     FM210600 02005KT 3SM BR OVC004
     FM211330 02007KT 6SM BR SCT005 OVC010=



Latest METAR

165
SAUS80 KWBC 210100 RRB
MTRSAV
METAR KSAV 210053Z 03006KT 10SM OVC013 12/10 A3019 RMK AO2 SLP222
T01220100


USA.gov is the U.S. government's official web portal to all federal, state and local government web resources and services.